createdAt,value
2023-04-12T00:00:21.250Z,10.00
2023-04-12T00:02:54.238Z,10.00
2023-04-12T00:05:23.000Z,10.10
2023-04-12T00:07:53.212Z,10.10
2023-04-12T00:10:20.546Z,10.00
2023-04-12T00:12:47.702Z,9.90
2023-04-12T00:15:15.485Z,9.90
2023-04-12T00:17:42.530Z,9.90
2023-04-12T00:20:12.795Z,10.00
2023-04-12T00:22:43.390Z,10.00
2023-04-12T00:25:10.783Z,10.10
2023-04-12T00:27:37.750Z,10.00
2023-04-12T00:30:05.248Z,10.10
2023-04-12T00:32:32.395Z,10.10
2023-04-12T00:34:59.488Z,10.10
2023-04-12T00:37:26.467Z,10.10
2023-04-12T00:39:53.248Z,10.10
2023-04-12T00:42:20.065Z,10.10
2023-04-12T00:44:47.012Z,10.10
2023-04-12T00:47:14.710Z,10.10
2023-04-12T00:49:41.780Z,10.20
2023-04-12T00:52:11.102Z,10.00
2023-04-12T00:54:38.346Z,10.10
2023-04-12T00:57:05.419Z,10.20
2023-04-12T00:59:32.413Z,10.10
2023-04-12T01:02:00.712Z,10.20
2023-04-12T01:04:28.672Z,10.20
2023-04-12T01:07:30.028Z,10.20
2023-04-12T01:10:15.493Z,10.20
2023-04-12T01:13:19.866Z,10.20
2023-04-12T01:15:54.647Z,10.20
2023-04-12T01:18:25.141Z,10.30
2023-04-12T01:21:03.782Z,10.30
2023-04-12T01:23:52.877Z,10.30
2023-04-12T01:26:50.010Z,10.20
2023-04-12T01:29:20.691Z,10.40
2023-04-12T01:31:57.312Z,10.40
2023-04-12T01:34:26.632Z,10.50
2023-04-12T01:36:55.530Z,10.40
2023-04-12T01:39:22.622Z,10.30
2023-04-12T01:41:50.037Z,10.30
2023-04-12T01:44:17.858Z,10.30
2023-04-12T01:46:47.541Z,10.30
2023-04-12T01:49:18.810Z,10.40
2023-04-12T01:51:53.590Z,10.40
2023-04-12T01:54:29.174Z,10.40
2023-04-12T01:57:02.569Z,10.40
2023-04-12T01:59:34.895Z,10.40
2023-04-12T02:02:02.879Z,10.50
2023-04-12T02:04:30.558Z,10.50
2023-04-12T02:06:57.816Z,10.60
2023-04-12T02:09:24.698Z,10.60
2023-04-12T02:11:51.536Z,10.50
2023-04-12T02:14:19.285Z,10.40
2023-04-12T02:16:46.677Z,10.40
2023-04-12T02:19:14.082Z,10.40
2023-04-12T02:21:45.651Z,10.50
2023-04-12T02:24:13.038Z,10.50
2023-04-12T02:26:40.398Z,10.50
2023-04-12T02:29:09.123Z,10.60
2023-04-12T02:31:38.921Z,10.40
2023-04-12T02:34:06.417Z,10.40
2023-04-12T02:36:33.513Z,10.50
2023-04-12T02:39:00.321Z,10.50
2023-04-12T02:41:27.456Z,10.60
2023-04-12T02:43:54.740Z,10.60
2023-04-12T02:46:27.507Z,10.70
2023-04-12T02:48:55.039Z,10.80
2023-04-12T02:51:22.624Z,10.80
2023-04-12T02:53:49.773Z,10.70
2023-04-12T02:56:19.110Z,10.70
2023-04-12T02:58:46.421Z,10.70
2023-04-12T03:01:14.706Z,10.80
2023-04-12T03:03:41.995Z,10.70
2023-04-12T03:06:09.606Z,10.80
2023-04-12T03:08:36.577Z,10.80
2023-04-12T03:11:03.542Z,10.70
2023-04-12T03:13:30.385Z,10.80
2023-04-12T03:15:59.773Z,10.80
2023-04-12T03:18:27.022Z,10.90
2023-04-12T03:20:54.183Z,10.90
2023-04-12T03:23:21.370Z,11.00
2023-04-12T03:25:48.530Z,11.20
2023-04-12T03:28:15.848Z,11.10
2023-04-12T03:30:43.406Z,11.00
2023-04-12T03:33:10.808Z,11.00
2023-04-12T03:35:37.739Z,11.20
2023-04-12T03:38:04.696Z,11.10
2023-04-12T03:40:31.802Z,11.20
2023-04-12T03:43:00.723Z,11.10
2023-04-12T03:45:29.046Z,11.10
2023-04-12T03:47:56.087Z,11.00
2023-04-12T03:50:23.634Z,11.00
2023-04-12T03:52:50.582Z,11.00
2023-04-12T03:55:18.266Z,11.00
2023-04-12T03:57:45.103Z,11.10
2023-04-12T04:00:12.530Z,11.00
2023-04-12T04:02:39.607Z,11.00
2023-04-12T04:05:06.774Z,10.90
2023-04-12T04:07:33.715Z,10.70
2023-04-12T04:10:00.628Z,10.60
2023-04-12T04:12:28.168Z,10.50
2023-04-12T04:14:55.122Z,10.40
2023-04-12T04:17:22.096Z,10.40
2023-04-12T04:19:49.836Z,10.50
2023-04-12T04:22:17.865Z,10.40
2023-04-12T04:24:45.056Z,10.50
2023-04-12T04:27:15.777Z,10.50
2023-04-12T04:29:45.613Z,10.50
2023-04-12T04:32:12.996Z,10.50
2023-04-12T04:34:40.332Z,10.40
2023-04-12T04:37:07.476Z,10.50
2023-04-12T04:39:34.468Z,10.40
2023-04-12T04:42:01.312Z,10.30
2023-04-12T04:44:28.168Z,10.30
2023-04-12T04:46:55.077Z,10.30
2023-04-12T04:49:22.170Z,10.40
2023-04-12T04:51:49.193Z,10.40
2023-04-12T04:54:16.777Z,10.40
2023-04-12T04:56:43.886Z,10.30
2023-04-12T04:59:10.882Z,10.30
2023-04-12T05:01:38.387Z,10.50
2023-04-12T05:04:06.010Z,10.60
2023-04-12T05:06:33.520Z,10.50
2023-04-12T05:09:01.758Z,10.60
2023-04-12T05:11:28.626Z,10.60
2023-04-12T05:13:55.453Z,10.50
2023-04-12T05:16:22.338Z,10.60
2023-04-12T05:18:49.388Z,10.60
2023-04-12T05:21:16.188Z,10.60
2023-04-12T05:23:45.736Z,10.60
2023-04-12T05:26:12.989Z,10.60
2023-04-12T05:28:39.802Z,10.60
2023-04-12T05:31:07.110Z,10.50
2023-04-12T05:33:34.857Z,10.60
2023-04-12T05:36:01.926Z,10.60
2023-04-12T05:38:29.057Z,10.50
2023-04-12T05:40:55.845Z,10.70
2023-04-12T05:43:22.944Z,10.70
2023-04-12T05:45:51.496Z,10.70
2023-04-12T05:48:19.269Z,10.70
2023-04-12T05:50:53.811Z,10.60
2023-04-12T05:53:21.864Z,10.60
2023-04-12T05:55:48.717Z,10.60
2023-04-12T05:58:15.763Z,10.50
2023-04-12T06:00:42.701Z,10.50
2023-04-12T06:03:11.739Z,10.70
2023-04-12T06:05:39.525Z,10.80
2023-04-12T06:08:06.588Z,10.80
2023-04-12T06:10:33.697Z,10.90
2023-04-12T06:13:00.586Z,10.90
2023-04-12T06:15:27.443Z,10.80
2023-04-12T06:17:54.558Z,10.80
2023-04-12T06:20:21.623Z,10.80
2023-04-12T06:22:48.742Z,11.00
2023-04-12T06:25:16.582Z,11.00
2023-04-12T06:27:43.926Z,10.90
2023-04-12T06:30:11.189Z,11.00
2023-04-12T06:32:38.698Z,11.00
2023-04-12T06:35:06.201Z,11.00
2023-04-12T06:37:33.292Z,11.10
2023-04-12T06:40:00.209Z,11.20
2023-04-12T06:42:27.178Z,11.20
2023-04-12T06:44:54.246Z,11.20
2023-04-12T06:47:22.826Z,11.20
2023-04-12T06:49:54.777Z,11.10
2023-04-12T06:52:26.948Z,11.10
2023-04-12T06:54:57.063Z,11.20
2023-04-12T06:57:24.380Z,10.90
2023-04-12T06:59:51.724Z,10.90
2023-04-12T07:02:18.919Z,11.00
2023-04-12T07:04:46.286Z,11.10
2023-04-12T07:07:13.522Z,11.10
2023-04-12T07:09:40.379Z,11.10
2023-04-12T07:12:07.698Z,11.20
2023-04-12T07:14:34.866Z,11.20
2023-04-12T07:17:02.259Z,11.20
2023-04-12T07:19:31.422Z,11.20
2023-04-12T07:21:58.892Z,11.30
2023-04-12T07:24:25.928Z,11.40
2023-04-12T07:26:56.250Z,11.50
2023-04-12T07:29:23.758Z,11.50
2023-04-12T07:31:51.169Z,11.50
2023-04-12T07:34:18.089Z,11.40
2023-04-12T07:36:45.123Z,11.30
2023-04-12T07:39:12.575Z,11.40
2023-04-12T07:41:39.786Z,11.50
2023-04-12T07:44:06.898Z,11.60
2023-04-12T07:46:34.276Z,11.70
2023-04-12T07:49:01.595Z,11.70
2023-04-12T07:51:28.467Z,11.80
2023-04-12T07:53:55.717Z,11.60
2023-04-12T07:56:22.723Z,11.50
2023-04-12T07:58:49.704Z,11.50
2023-04-12T08:01:16.978Z,11.50
2023-04-12T08:03:44.043Z,11.50
2023-04-12T08:06:11.913Z,11.40
2023-04-12T08:08:38.852Z,11.40
2023-04-12T08:11:06.666Z,11.50
2023-04-12T08:13:35.623Z,11.50
2023-04-12T08:16:04.208Z,11.60
2023-04-12T08:18:56.955Z,11.80
2023-04-12T08:21:23.965Z,12.00
2023-04-12T08:23:51.709Z,11.90
2023-04-12T08:26:18.774Z,12.10
2023-04-12T08:28:45.612Z,12.40
2023-04-12T08:31:14.212Z,12.50
2023-04-12T08:33:41.229Z,12.40
2023-04-12T08:36:08.636Z,12.40
2023-04-12T08:38:45.443Z,12.40
2023-04-12T08:41:14.209Z,12.30
2023-04-12T08:43:45.794Z,12.40
2023-04-12T08:46:15.827Z,12.50
2023-04-12T08:48:46.603Z,12.50
2023-04-12T08:51:16.583Z,12.40
2023-04-12T08:53:44.117Z,12.40
2023-04-12T08:56:12.298Z,12.40
2023-04-12T08:58:46.743Z,12.30
2023-04-12T09:01:21.371Z,12.10
2023-04-12T09:03:49.061Z,12.00
2023-04-12T09:06:16.173Z,12.00
2023-04-12T09:08:52.576Z,12.10
2023-04-12T09:11:24.892Z,12.10
2023-04-12T09:13:52.290Z,12.20
2023-04-12T09:16:38.147Z,12.40
2023-04-12T09:19:05.593Z,12.60
2023-04-12T09:21:34.965Z,12.30
2023-04-12T09:24:14.910Z,12.70
2023-04-12T09:26:42.402Z,12.90
2023-04-12T09:29:28.167Z,13.30
2023-04-12T09:32:09.691Z,13.60
2023-04-12T09:34:37.282Z,13.80
2023-04-12T09:37:17.245Z,13.90
2023-04-12T09:39:44.358Z,14.00
2023-04-12T09:42:29.270Z,14.00
2023-04-12T09:45:01.211Z,14.30
2023-04-12T09:47:39.540Z,14.40
2023-04-12T09:50:08.610Z,14.20
2023-04-12T09:52:38.385Z,14.20
2023-04-12T09:55:11.592Z,13.90
2023-04-12T09:57:43.331Z,13.60
2023-04-12T10:00:14.345Z,13.30
2023-04-12T10:02:45.068Z,13.20
2023-04-12T10:05:16.285Z,12.90
2023-04-12T10:07:44.565Z,12.70
2023-04-12T10:10:13.592Z,12.50
2023-04-12T10:12:42.159Z,12.50
2023-04-12T10:15:15.347Z,12.30
2023-04-12T10:17:48.568Z,12.10
2023-04-12T10:20:17.773Z,11.90
2023-04-12T10:22:52.452Z,11.50
2023-04-12T10:25:24.445Z,11.30
2023-04-12T10:27:51.931Z,10.80
2023-04-12T10:30:19.610Z,10.50
2023-04-12T10:32:47.570Z,10.00
2023-04-12T10:35:14.676Z,10.10
2023-04-12T10:38:01.460Z,10.00
2023-04-12T10:40:29.351Z,10.20
2023-04-12T10:43:24.437Z,10.30
2023-04-12T10:45:51.582Z,10.50
2023-04-12T10:48:39.498Z,10.70
2023-04-12T10:51:23.563Z,11.00
2023-04-12T10:53:54.165Z,11.30
2023-04-12T10:56:32.545Z,11.70
2023-04-12T10:59:01.569Z,12.30
2023-04-12T11:01:29.841Z,12.80
2023-04-12T11:04:20.425Z,13.20
2023-04-12T11:06:51.101Z,13.30
2023-04-12T11:09:23.218Z,13.40
2023-04-12T11:11:50.680Z,13.50
2023-04-12T11:14:18.561Z,13.40
2023-04-12T11:17:07.532Z,13.40
2023-04-12T11:19:38.037Z,13.70
2023-04-12T11:22:06.357Z,13.40
2023-04-12T11:24:34.095Z,13.70
2023-04-12T11:27:01.556Z,14.00
2023-04-12T11:29:28.600Z,14.30
2023-04-12T11:31:56.342Z,14.30
2023-04-12T11:34:23.400Z,14.30
2023-04-12T11:36:55.000Z,14.10
2023-04-12T11:39:21.955Z,13.90
2023-04-12T11:41:49.861Z,14.10
2023-04-12T11:44:19.321Z,14.30
2023-04-12T11:46:46.584Z,14.40
2023-04-12T11:49:21.072Z,14.70
2023-04-12T11:51:49.592Z,14.50
2023-04-12T11:54:16.576Z,14.30
2023-04-12T11:56:43.449Z,14.30
2023-04-12T11:59:10.363Z,14.40
2023-04-12T12:01:37.958Z,14.30
2023-04-12T12:04:05.870Z,14.20
2023-04-12T12:06:33.651Z,13.90
2023-04-12T12:09:01.353Z,13.80
2023-04-12T12:11:28.240Z,14.00
2023-04-12T12:13:57.365Z,14.40
2023-04-12T12:16:30.273Z,14.50
2023-04-12T12:18:57.961Z,14.50
2023-04-12T12:21:27.334Z,14.10
2023-04-12T12:23:56.960Z,13.80
2023-04-12T12:26:26.401Z,13.50
2023-04-12T12:28:55.717Z,13.30
2023-04-12T12:31:30.810Z,13.20
2023-04-12T12:33:59.666Z,12.80
2023-04-12T12:36:34.426Z,12.70
2023-04-12T12:39:10.656Z,12.70
2023-04-12T12:41:39.019Z,13.00
2023-04-12T12:44:07.191Z,13.30
2023-04-12T12:49:04.211Z,13.50
2023-04-12T12:51:31.625Z,13.40
2023-04-12T12:53:58.829Z,13.40
2023-04-12T12:56:25.963Z,13.30
2023-04-12T12:58:53.008Z,13.40
2023-04-12T13:01:19.926Z,13.20
2023-04-12T13:03:46.891Z,13.30
2023-04-12T13:06:13.861Z,13.30
2023-04-12T13:08:40.963Z,13.20
2023-04-12T13:11:08.194Z,13.40
2023-04-12T13:13:35.135Z,13.40
2023-04-12T13:16:02.089Z,13.70
2023-04-12T13:18:30.167Z,14.00
2023-04-12T13:21:00.197Z,14.20
2023-04-12T13:23:27.059Z,14.30
2023-04-12T13:25:53.960Z,14.80
2023-04-12T13:28:21.464Z,15.00
2023-04-12T13:30:48.838Z,15.00
2023-04-12T13:33:19.961Z,14.90
2023-04-12T13:35:47.924Z,15.20
2023-04-12T13:38:14.887Z,15.40
2023-04-12T13:40:41.716Z,15.70
2023-04-12T13:43:08.805Z,15.50
2023-04-12T13:45:35.965Z,15.50
2023-04-12T13:48:02.927Z,14.90
2023-04-12T13:50:29.898Z,14.40
2023-04-12T13:52:56.702Z,14.10
2023-04-12T13:55:23.574Z,14.00
2023-04-12T13:57:50.527Z,14.30
2023-04-12T14:00:18.376Z,14.60
2023-04-12T14:02:45.385Z,15.10
2023-04-12T14:05:12.181Z,15.20
2023-04-12T14:07:39.127Z,15.30
2023-04-12T14:10:06.694Z,14.70
2023-04-12T14:12:33.671Z,14.60
2023-04-12T14:15:00.750Z,14.90
2023-04-12T14:17:32.647Z,15.40
2023-04-12T14:20:00.625Z,15.70
2023-04-12T14:22:28.157Z,15.60
2023-04-12T14:24:55.218Z,15.60
2023-04-12T14:27:22.572Z,15.60
2023-04-12T14:29:49.846Z,15.10
2023-04-12T14:32:17.163Z,15.10
2023-04-12T14:34:44.253Z,15.00
2023-04-12T14:37:11.330Z,15.10
2023-04-12T14:39:38.272Z,15.20
2023-04-12T14:42:06.261Z,15.50
2023-04-12T14:44:33.293Z,15.90
2023-04-12T14:47:00.166Z,15.90
2023-04-12T14:49:28.534Z,15.80
2023-04-12T14:51:57.200Z,15.60
2023-04-12T14:54:24.107Z,15.70
2023-04-12T14:56:55.123Z,15.70
2023-04-12T14:59:23.360Z,15.60
2023-04-12T15:01:52.813Z,15.10
2023-04-12T15:04:20.343Z,14.70
2023-04-12T15:06:47.730Z,14.30
2023-04-12T15:09:17.768Z,13.90
2023-04-12T15:11:47.915Z,13.40
2023-04-12T15:14:20.902Z,13.80
2023-04-12T15:16:50.892Z,13.90
2023-04-12T15:19:23.325Z,14.10
2023-04-12T15:21:51.397Z,14.20
2023-04-12T15:24:19.154Z,14.40
2023-04-12T15:26:48.374Z,14.50
2023-04-12T15:29:18.881Z,14.70
2023-04-12T15:31:46.266Z,14.50
2023-04-12T15:34:15.961Z,14.30
2023-04-12T15:36:46.049Z,14.40
2023-04-12T15:39:15.023Z,14.30
2023-04-12T15:41:42.943Z,14.40
2023-04-12T15:44:13.142Z,14.30
2023-04-12T15:46:44.549Z,14.60
2023-04-12T15:49:13.326Z,14.90
2023-04-12T15:51:40.415Z,15.10
2023-04-12T15:54:07.466Z,14.90
2023-04-12T15:56:35.428Z,15.20
2023-04-12T15:59:02.369Z,15.30
2023-04-12T16:01:29.487Z,15.40
2023-04-12T16:03:56.654Z,15.30
2023-04-12T16:06:25.406Z,15.00
2023-04-12T16:08:54.801Z,15.50
2023-04-12T16:11:24.026Z,15.30
2023-04-12T16:13:52.574Z,15.00
2023-04-12T16:16:21.420Z,15.10
2023-04-12T16:18:52.836Z,15.20
2023-04-12T16:21:21.407Z,15.20
2023-04-12T16:23:50.355Z,14.80
2023-04-12T16:26:22.118Z,14.90
2023-04-12T16:28:53.553Z,15.00
2023-04-12T16:31:21.281Z,14.80
2023-04-12T16:33:52.144Z,14.80
2023-04-12T16:36:20.019Z,14.80
2023-04-12T16:38:47.378Z,14.60
2023-04-12T16:41:14.510Z,14.50
2023-04-12T16:43:43.983Z,14.40
2023-04-12T16:46:12.215Z,14.30
2023-04-12T16:48:41.218Z,14.20
2023-04-12T16:51:08.298Z,14.10
2023-04-12T16:53:35.915Z,13.90
2023-04-12T16:56:02.915Z,13.90
2023-04-12T16:58:29.999Z,13.90
2023-04-12T17:00:57.919Z,13.90
2023-04-12T17:03:25.543Z,13.80
2023-04-12T17:05:53.154Z,13.70
2023-04-12T17:08:19.962Z,13.70
2023-04-12T17:10:47.020Z,13.20
2023-04-12T17:13:17.919Z,13.20
2023-04-12T17:15:48.154Z,13.20
2023-04-12T17:18:15.861Z,13.30
2023-04-12T17:20:43.117Z,13.20
2023-04-12T17:23:10.585Z,13.20
2023-04-12T17:25:37.997Z,13.00
2023-04-12T17:28:07.914Z,13.00
2023-04-12T17:30:35.009Z,12.80
2023-04-12T17:33:02.118Z,12.70
2023-04-12T17:35:29.529Z,12.60
2023-04-12T17:37:56.514Z,12.40
2023-04-12T17:40:23.593Z,12.30
2023-04-12T17:42:50.661Z,12.40
2023-04-12T17:45:19.432Z,12.20
2023-04-12T17:47:46.455Z,12.10
2023-04-12T17:50:14.225Z,11.80
2023-04-12T17:52:41.078Z,11.90
2023-04-12T17:55:12.903Z,12.00
2023-04-12T17:57:39.976Z,12.00
2023-04-12T18:00:11.954Z,12.20
2023-04-12T18:02:39.951Z,12.30
2023-04-12T18:05:07.782Z,12.20
2023-04-12T18:07:34.910Z,12.00
2023-04-12T18:10:03.125Z,12.10
2023-04-12T18:12:29.980Z,12.10
2023-04-12T18:14:56.807Z,11.90
2023-04-12T18:17:26.379Z,11.90
2023-04-12T18:19:55.157Z,11.80
2023-04-12T18:22:22.667Z,11.70
2023-04-12T18:24:49.527Z,11.60
2023-04-12T18:27:16.316Z,11.60
2023-04-12T18:29:43.250Z,11.60
2023-04-12T18:32:10.487Z,11.50
2023-04-12T18:34:37.625Z,11.50
2023-04-12T18:37:06.017Z,11.40
2023-04-12T18:39:35.612Z,11.50
2023-04-12T18:42:02.876Z,11.40
2023-04-12T18:44:30.270Z,11.40
2023-04-12T18:46:57.201Z,11.30
2023-04-12T18:49:24.329Z,11.30
2023-04-12T18:51:53.276Z,11.20
2023-04-12T18:54:21.231Z,11.10
2023-04-12T18:56:48.226Z,11.10
2023-04-12T18:59:18.464Z,11.00
2023-04-12T19:01:45.997Z,11.00
2023-04-12T19:04:13.243Z,11.00
2023-04-12T19:06:40.123Z,11.10
2023-04-12T19:09:08.280Z,11.00
2023-04-12T19:11:37.099Z,10.90
2023-04-12T19:14:04.559Z,10.90
2023-04-12T19:16:32.821Z,11.00
2023-04-12T19:19:00.476Z,11.00
2023-04-12T19:21:31.633Z,11.00
2023-04-12T19:23:59.011Z,11.00
2023-04-12T19:26:28.158Z,10.90
2023-04-12T19:28:58.181Z,11.00
2023-04-12T19:31:25.692Z,11.00
2023-04-12T19:33:54.019Z,11.00
2023-04-12T19:36:21.189Z,11.00
2023-04-12T19:38:48.969Z,11.00
2023-04-12T19:41:17.799Z,11.00
2023-04-12T19:43:44.737Z,11.00
2023-04-12T19:46:11.763Z,11.10
2023-04-12T19:48:38.986Z,11.10
2023-04-12T19:51:06.315Z,10.90
2023-04-12T19:53:34.020Z,10.50
2023-04-12T19:56:04.181Z,10.00
2023-04-12T19:58:32.153Z,9.80
2023-04-12T20:01:02.262Z,9.70
2023-04-12T20:03:30.135Z,9.50
2023-04-12T20:05:59.090Z,9.30
2023-04-12T20:08:27.453Z,9.10
2023-04-12T20:10:54.297Z,9.00
2023-04-12T20:13:21.100Z,8.90
2023-04-12T20:15:47.944Z,8.90
2023-04-12T20:18:15.019Z,8.90
2023-04-12T20:20:47.380Z,8.90
2023-04-12T20:23:14.353Z,8.90
2023-04-12T20:25:42.115Z,9.00
2023-04-12T20:28:09.442Z,9.00
2023-04-12T20:30:37.217Z,8.90
2023-04-12T20:33:04.358Z,8.80
2023-04-12T20:35:31.477Z,8.80
2023-04-12T20:37:58.295Z,8.80
2023-04-12T20:40:28.043Z,8.90
2023-04-12T20:42:55.452Z,8.90
2023-04-12T20:45:23.454Z,8.90
2023-04-12T20:47:51.003Z,8.90
2023-04-12T20:50:18.787Z,8.90
2023-04-12T20:52:45.745Z,9.10
2023-04-12T20:55:14.224Z,9.10
2023-04-12T20:57:41.786Z,9.10
2023-04-12T21:00:18.911Z,9.20
2023-04-12T21:02:46.467Z,9.20
2023-04-12T21:05:17.012Z,9.10
2023-04-12T21:07:46.940Z,9.20
2023-04-12T21:10:15.066Z,9.10
2023-04-12T21:12:42.880Z,9.00
2023-04-12T21:15:11.784Z,9.00
2023-04-12T21:17:39.483Z,8.80
2023-04-12T21:20:13.669Z,8.70
2023-04-12T21:22:42.166Z,8.60
2023-04-12T21:25:16.401Z,8.60
2023-04-12T21:27:45.284Z,8.40
2023-04-12T21:30:12.863Z,8.20
2023-04-12T21:32:41.421Z,8.10
2023-04-12T21:35:10.049Z,8.10
2023-04-12T21:37:39.414Z,8.10
2023-04-12T21:40:09.369Z,8.00
2023-04-12T21:42:41.001Z,8.00
2023-04-12T21:45:09.586Z,8.00
2023-04-12T21:47:38.819Z,8.00
2023-04-12T21:50:07.889Z,8.00
2023-04-12T21:52:35.559Z,8.00
2023-04-12T21:55:03.131Z,8.00
2023-04-12T21:57:34.163Z,8.10
2023-04-12T22:00:02.111Z,8.20
2023-04-12T22:02:29.459Z,8.20
2023-04-12T22:04:56.865Z,8.10
2023-04-12T22:07:23.721Z,8.10
2023-04-12T22:09:53.546Z,8.10
2023-04-12T22:12:21.324Z,8.10
2023-04-12T22:14:49.896Z,8.10
2023-04-12T22:17:21.392Z,8.00
2023-04-12T22:19:48.651Z,8.10
2023-04-12T22:22:16.194Z,8.10
2023-04-12T22:24:44.154Z,8.10
2023-04-12T22:27:11.195Z,8.20
2023-04-12T22:29:38.461Z,8.00
2023-04-12T22:32:05.367Z,8.10
2023-04-12T22:34:33.860Z,8.10
2023-04-12T22:37:02.907Z,8.10
2023-04-12T22:39:31.918Z,8.10
2023-04-12T22:41:59.597Z,8.10
2023-04-12T22:44:27.349Z,8.10
2023-04-12T22:46:56.816Z,8.30
2023-04-12T22:49:27.253Z,8.20
2023-04-12T22:51:55.317Z,8.20
2023-04-12T22:54:23.422Z,8.20
2023-04-12T22:56:50.760Z,8.20
2023-04-12T22:59:19.988Z,8.30
2023-04-12T23:01:47.446Z,8.10
2023-04-12T23:04:15.855Z,8.20
2023-04-12T23:06:43.636Z,8.40
2023-04-12T23:09:12.016Z,8.50
2023-04-12T23:11:40.747Z,8.40
2023-04-12T23:14:09.387Z,8.40
2023-04-12T23:16:42.305Z,8.40
2023-04-12T23:19:14.850Z,8.30
2023-04-12T23:21:42.420Z,8.40
2023-04-12T23:24:12.176Z,8.20
2023-04-12T23:26:39.484Z,8.20
2023-04-12T23:29:06.300Z,8.20
2023-04-12T23:31:33.506Z,8.30
2023-04-12T23:34:06.154Z,8.40
2023-04-12T23:36:34.160Z,8.50
2023-04-12T23:39:01.469Z,8.60
2023-04-12T23:41:31.620Z,8.70
2023-04-12T23:43:59.542Z,8.80
2023-04-12T23:46:26.804Z,8.90
2023-04-12T23:48:53.740Z,9.00
2023-04-12T23:51:21.211Z,9.00
2023-04-12T23:53:48.129Z,9.10
2023-04-12T23:56:14.997Z,9.20
2023-04-12T23:58:42.281Z,9.30
